sensor_id;sensor_type;location;lat;lon;timestamp;pressure;altitude;pressure_sealevel;temperature;humidity
13705;BME280;6924;52.122;9.952;2023-03-20T00:01:21;100634.22;;;9.60;100.00
13705;BME280;6924;52.122;9.952;2023-03-20T00:03:48;100637.06;;;9.60;100.00
13705;BME280;6924;52.122;9.952;2023-03-20T00:06:16;100635.88;;;9.61;100.00
13705;BME280;6924;52.122;9.952;2023-03-20T00:08:43;100652.84;;;9.61;100.00
13705;BME280;6924;52.122;9.952;2023-03-20T00:11:24;100643.00;;;9.58;100.00
13705;BME280;6924;52.122;9.952;2023-03-20T00:13:53;100646.44;;;9.55;100.00
13705;BME280;6924;52.122;9.952;2023-03-20T00:16:20;100654.59;;;9.57;100.00
13705;BME280;6924;52.122;9.952;2023-03-20T00:18:48;100652.09;;;9.55;100.00
13705;BME280;6924;52.122;9.952;2023-03-20T00:21:17;100652.38;;;9.54;100.00
13705;BME280;6924;52.122;9.952;2023-03-20T00:23:43;100655.44;;;9.57;100.00
13705;BME280;6924;52.122;9.952;2023-03-20T00:26:11;100648.34;;;9.60;100.00
13705;BME280;6924;52.122;9.952;2023-03-20T00:28:41;100636.75;;;9.61;100.00
13705;BME280;6924;52.122;9.952;2023-03-20T00:31:14;100644.31;;;9.66;100.00
13705;BME280;6924;52.122;9.952;2023-03-20T00:33:44;100642.22;;;9.71;100.00
13705;BME280;6924;52.122;9.952;2023-03-20T00:36:10;100650.09;;;9.75;100.00
13705;BME280;6924;52.122;9.952;2023-03-20T00:38:37;100652.06;;;9.74;100.00
13705;BME280;6924;52.122;9.952;2023-03-20T00:41:19;100651.75;;;9.76;100.00
13705;BME280;6924;52.122;9.952;2023-03-20T00:43:48;100652.38;;;9.72;100.00
13705;BME280;6924;52.122;9.952;2023-03-20T00:46:17;100656.28;;;9.58;100.00
13705;BME280;6924;52.122;9.952;2023-03-20T00:48:43;100649.50;;;9.40;100.00
13705;BME280;6924;52.122;9.952;2023-03-20T00:51:11;100653.28;;;9.30;100.00
13705;BME280;6924;52.122;9.952;2023-03-20T00:53:37;100658.19;;;9.24;100.00
13705;BME280;6924;52.122;9.952;2023-03-20T00:56:04;100657.41;;;9.19;100.00
13705;BME280;6924;52.122;9.952;2023-03-20T00:58:31;100663.06;;;9.19;100.00
13705;BME280;6924;52.122;9.952;2023-03-20T01:00:59;100671.22;;;9.20;100.00
13705;BME280;6924;52.122;9.952;2023-03-20T01:03:25;100667.41;;;9.11;100.00
13705;BME280;6924;52.122;9.952;2023-03-20T01:05:54;100670.59;;;9.04;100.00
13705;BME280;6924;52.122;9.952;2023-03-20T01:08:23;100661.13;;;8.95;100.00
13705;BME280;6924;52.122;9.952;2023-03-20T01:10:52;100666.81;;;8.90;100.00
13705;BME280;6924;52.122;9.952;2023-03-20T01:13:22;100667.44;;;8.87;100.00
13705;BME280;6924;52.122;9.952;2023-03-20T01:15:49;100659.88;;;8.82;100.00
13705;BME280;6924;52.122;9.952;2023-03-20T01:18:18;100658.88;;;8.73;100.00
13705;BME280;6924;52.122;9.952;2023-03-20T01:20:46;100668.81;;;8.65;100.00
13705;BME280;6924;52.122;9.952;2023-03-20T01:23:13;100668.81;;;8.65;100.00
13705;BME280;6924;52.122;9.952;2023-03-20T01:25:40;100677.91;;;8.57;100.00
13705;BME280;6924;52.122;9.952;2023-03-20T01:28:13;100679.63;;;8.53;100.00
13705;BME280;6924;52.122;9.952;2023-03-20T01:30:40;100674.88;;;8.54;100.00
13705;BME280;6924;52.122;9.952;2023-03-20T01:33:13;100677.16;;;8.52;100.00
13705;BME280;6924;52.122;9.952;2023-03-20T01:35:41;100681.09;;;8.51;100.00
13705;BME280;6924;52.122;9.952;2023-03-20T01:38:11;100683.13;;;8.45;100.00
13705;BME280;6924;52.122;9.952;2023-03-20T01:40:43;100679.47;;;8.44;100.00
13705;BME280;6924;52.122;9.952;2023-03-20T01:43:14;100682.25;;;8.50;100.00
13705;BME280;6924;52.122;9.952;2023-03-20T01:45:48;100683.50;;;8.62;100.00
13705;BME280;6924;52.122;9.952;2023-03-20T01:48:17;100686.75;;;8.75;100.00
13705;BME280;6924;52.122;9.952;2023-03-20T01:50:45;100680.56;;;8.73;100.00
13705;BME280;6924;52.122;9.952;2023-03-20T01:53:14;100686.75;;;8.75;100.00
13705;BME280;6924;52.122;9.952;2023-03-20T01:55:43;100693.34;;;8.65;100.00
13705;BME280;6924;52.122;9.952;2023-03-20T01:58:14;100696.16;;;8.65;100.00
13705;BME280;6924;52.122;9.952;2023-03-20T02:00:42;100687.91;;;8.74;100.00
13705;BME280;6924;52.122;9.952;2023-03-20T02:03:08;100686.75;;;8.75;100.00
13705;BME280;6924;52.122;9.952;2023-03-20T02:05:36;100689.91;;;8.68;100.00
13705;BME280;6924;52.122;9.952;2023-03-20T02:08:16;100679.13;;;8.75;100.00
13705;BME280;6924;52.122;9.952;2023-03-20T02:10:44;100688.91;;;8.83;100.00
13705;BME280;6924;52.122;9.952;2023-03-20T02:13:12;100684.75;;;8.99;100.00
13705;BME280;6924;52.122;9.952;2023-03-20T02:15:55;100694.78;;;9.10;100.00
13705;BME280;6924;52.122;9.952;2023-03-20T02:18:22;100699.03;;;9.08;100.00
13705;BME280;6924;52.122;9.952;2023-03-20T02:21:05;100698.63;;;9.20;100.00
13705;BME280;6924;52.122;9.952;2023-03-20T02:23:57;100708.28;;;9.14;100.00
13705;BME280;6924;52.122;9.952;2023-03-20T02:26:42;100699.28;;;9.12;100.00
13705;BME280;6924;52.122;9.952;2023-03-20T02:29:42;100705.03;;;9.01;100.00
13705;BME280;6924;52.122;9.952;2023-03-20T02:32:51;100708.72;;;8.78;100.00
13705;BME280;6924;52.122;9.952;2023-03-20T02:38:30;100710.34;;;8.60;100.00
13705;BME280;6924;52.122;9.952;2023-03-20T02:41:05;100715.66;;;8.61;100.00
13705;BME280;6924;52.122;9.952;2023-03-20T02:43:41;100723.91;;;8.53;100.00
13705;BME280;6924;52.122;9.952;2023-03-20T02:46:12;100728.66;;;8.57;100.00
13705;BME280;6924;52.122;9.952;2023-03-20T02:48:47;100722.81;;;8.48;100.00
13705;BME280;6924;52.122;9.952;2023-03-20T02:51:24;100728.72;;;8.52;100.00
13705;BME280;6924;52.122;9.952;2023-03-20T02:54:00;100732.28;;;8.63;100.00
13705;BME280;6924;52.122;9.952;2023-03-20T02:56:35;100732.38;;;8.53;100.00
13705;BME280;6924;52.122;9.952;2023-03-20T02:59:13;100738.97;;;8.43;100.00
13705;BME280;6924;52.122;9.952;2023-03-20T03:01:43;100738.06;;;8.47;100.00
13705;BME280;6924;52.122;9.952;2023-03-20T03:04:16;100739.50;;;8.40;100.00
13705;BME280;6924;52.122;9.952;2023-03-20T03:06:45;100734.19;;;8.38;100.00
13705;BME280;6924;52.122;9.952;2023-03-20T03:09:17;100733.63;;;8.36;100.00
13705;BME280;6924;52.122;9.952;2023-03-20T03:11:48;100739.63;;;8.30;100.00
13705;BME280;6924;52.122;9.952;2023-03-20T03:14:18;100731.16;;;8.30;100.00
13705;BME280;6924;52.122;9.952;2023-03-20T03:16:48;100735.41;;;8.27;100.00
13705;BME280;6924;52.122;9.952;2023-03-20T03:19:17;100731.75;;;8.26;100.00
13705;BME280;6924;52.122;9.952;2023-03-20T03:21:46;100729.25;;;8.20;100.00
13705;BME280;6924;52.122;9.952;2023-03-20T03:24:24;100729.25;;;8.20;100.00
13705;BME280;6924;52.122;9.952;2023-03-20T03:26:54;100735.16;;;8.23;100.00
13705;BME280;6924;52.122;9.952;2023-03-20T03:29:22;100740.84;;;8.18;100.00
13705;BME280;6924;52.122;9.952;2023-03-20T03:31:51;100743.13;;;8.16;100.00
13705;BME280;6924;52.122;9.952;2023-03-20T03:34:18;100746.00;;;8.06;100.00
13705;BME280;6924;52.122;9.952;2023-03-20T03:36:50;100737.84;;;8.04;100.00
13705;BME280;6924;52.122;9.952;2023-03-20T03:39:26;100734.13;;;8.09;100.00
13705;BME280;6924;52.122;9.952;2023-03-20T03:42:03;100735.22;;;8.18;100.00
13705;BME280;6924;52.122;9.952;2023-03-20T03:44:35;100736.38;;;8.12;100.00
13705;BME280;6924;52.122;9.952;2023-03-20T03:47:07;100731.16;;;8.30;100.00
13705;BME280;6924;52.122;9.952;2023-03-20T03:49:40;100727.50;;;8.29;100.00
13705;BME280;6924;52.122;9.952;2023-03-20T03:52:11;100725.47;;;8.35;100.00
13705;BME280;6924;52.122;9.952;2023-03-20T03:54:46;100732.19;;;8.44;100.00
13705;BME280;6924;52.122;9.952;2023-03-20T03:57:17;100732.72;;;8.46;100.00
13705;BME280;6924;52.122;9.952;2023-03-20T03:59:49;100724.25;;;8.46;100.00
13705;BME280;6924;52.122;9.952;2023-03-20T04:02:19;100725.91;;;8.52;100.00
13705;BME280;6924;52.122;9.952;2023-03-20T04:04:48;100729.19;;;8.59;100.00
13705;BME280;6924;52.122;9.952;2023-03-20T04:07:16;100721.91;;;8.58;100.00
13705;BME280;6924;52.122;9.952;2023-03-20T04:09:43;100723.28;;;8.61;100.00
13705;BME280;6924;52.122;9.952;2023-03-20T04:12:28;100725.50;;;8.64;100.00
13705;BME280;6924;52.122;9.952;2023-03-20T04:14:56;100726.03;;;8.66;100.00
13705;BME280;6924;52.122;9.952;2023-03-20T04:17:22;100723.75;;;8.68;100.00
13705;BME280;6924;52.122;9.952;2023-03-20T04:19:49;100721.47;;;8.70;100.00
13705;BME280;6924;52.122;9.952;2023-03-20T04:22:15;100726.00;;;8.71;100.00
13705;BME280;6924;52.122;9.952;2023-03-20T04:24:41;100726.84;;;8.72;100.00
13705;BME280;6924;52.122;9.952;2023-03-20T04:27:09;100728.81;;;8.71;100.00
13705;BME280;6924;52.122;9.952;2023-03-20T04:29:35;100730.78;;;8.71;100.00
13705;BME280;6924;52.122;9.952;2023-03-20T04:32:02;100733.91;;;8.69;100.00
13705;BME280;6924;52.122;9.952;2023-03-20T04:34:28;100734.75;;;8.69;100.00
13705;BME280;6924;52.122;9.952;2023-03-20T04:36:55;100725.69;;;8.73;100.00
13705;BME280;6924;52.122;9.952;2023-03-20T04:39:22;100729.66;;;8.72;100.00
13705;BME280;6924;52.122;9.952;2023-03-20T04:41:48;100726.00;;;8.71;100.00
13705;BME280;6924;52.122;9.952;2023-03-20T04:44:16;100726.56;;;8.68;100.00
13705;BME280;6924;52.122;9.952;2023-03-20T04:46:43;100720.19;;;8.57;100.00
13705;BME280;6924;52.122;9.952;2023-03-20T04:49:09;100710.63;;;8.58;100.00
13705;BME280;6924;52.122;9.952;2023-03-20T04:51:35;100718.63;;;8.46;100.00
13705;BME280;6924;52.122;9.952;2023-03-20T04:54:02;100712.63;;;8.53;100.00
13705;BME280;6924;52.122;9.952;2023-03-20T04:56:28;100714.63;;;8.52;100.00
13705;BME280;6924;52.122;9.952;2023-03-20T04:58:55;100709.47;;;8.59;100.00
13705;BME280;6924;52.122;9.952;2023-03-20T05:01:22;100728.53;;;8.43;100.00
13705;BME280;6924;52.122;9.952;2023-03-20T05:03:49;100714.38;;;8.48;100.00
13705;BME280;6924;52.122;9.952;2023-03-20T05:06:16;100715.16;;;8.54;100.00
13705;BME280;6924;52.122;9.952;2023-03-20T05:08:42;100710.38;;;8.55;100.00
13705;BME280;6924;52.122;9.952;2023-03-20T05:11:09;100712.34;;;8.54;100.00
13705;BME280;6924;52.122;9.952;2023-03-20T05:13:35;100705.81;;;8.59;100.00
13705;BME280;6924;52.122;9.952;2023-03-20T05:16:01;100703.81;;;8.59;100.00
13705;BME280;6924;52.122;9.952;2023-03-20T05:18:29;100704.38;;;8.61;100.00
13705;BME280;6924;52.122;9.952;2023-03-20T05:20:56;100700.66;;;8.66;100.00
13705;BME280;6924;52.122;9.952;2023-03-20T05:23:22;100695.28;;;8.69;100.00
13705;BME280;6924;52.122;9.952;2023-03-20T05:25:48;100701.44;;;8.72;100.00
13705;BME280;6924;52.122;9.952;2023-03-20T05:28:15;100696.91;;;8.76;100.00
13705;BME280;6924;52.122;9.952;2023-03-20T05:30:41;100696.91;;;8.76;100.00
13705;BME280;6924;52.122;9.952;2023-03-20T05:33:08;100703.91;;;8.78;100.00
13705;BME280;6924;52.122;9.952;2023-03-20T05:35:36;100701.31;;;8.82;100.00
13705;BME280;6924;52.122;9.952;2023-03-20T05:38:03;100692.56;;;8.83;100.00
13705;BME280;6924;52.122;9.952;2023-03-20T05:40:29;100693.94;;;8.86;100.00
13705;BME280;6924;52.122;9.952;2023-03-20T05:42:55;100701.84;;;8.84;100.00
13705;BME280;6924;52.122;9.952;2023-03-20T05:45:22;100688.91;;;8.83;100.00
13705;BME280;6924;52.122;9.952;2023-03-20T05:47:48;100693.66;;;8.87;100.00
13705;BME280;6924;52.122;9.952;2023-03-20T05:50:15;100694.56;;;8.83;100.00
13705;BME280;6924;52.122;9.952;2023-03-20T05:52:45;100701.31;;;8.82;100.00
13705;BME280;6924;52.122;9.952;2023-03-20T05:55:12;100705.47;;;8.89;100.00
13705;BME280;6924;52.122;9.952;2023-03-20T05:57:38;100710.22;;;8.94;100.00
13705;BME280;6924;52.122;9.952;2023-03-20T06:00:06;100714.41;;;8.97;100.00
13705;BME280;6924;52.122;9.952;2023-03-20T06:02:34;100712.13;;;8.99;100.00
13705;BME280;6924;52.122;9.952;2023-03-20T06:05:01;100711.53;;;9.02;100.00
13705;BME280;6924;52.122;9.952;2023-03-20T06:07:27;100711.53;;;9.02;100.00
13705;BME280;6924;52.122;9.952;2023-03-20T06:09:55;100716.28;;;9.06;100.00
13705;BME280;6924;52.122;9.952;2023-03-20T06:12:21;100719.31;;;9.10;100.00
13705;BME280;6924;52.122;9.952;2023-03-20T06:14:48;100719.94;;;9.07;100.00
13705;BME280;6924;52.122;9.952;2023-03-20T06:17:14;100723.00;;;9.10;100.00
13705;BME280;6924;52.122;9.952;2023-03-20T06:19:41;100731.41;;;8.92;100.00
13705;BME280;6924;52.122;9.952;2023-03-20T06:22:07;100720.78;;;8.83;100.00
13705;BME280;6924;52.122;9.952;2023-03-20T06:24:33;100724.84;;;8.72;100.00
13705;BME280;6924;52.122;9.952;2023-03-20T06:27:02;100723.03;;;8.57;100.00
13705;BME280;6924;52.122;9.952;2023-03-20T06:29:28;100720.28;;;8.76;100.00
13705;BME280;6924;52.122;9.952;2023-03-20T06:31:55;100716.28;;;8.53;100.00
13705;BME280;6924;52.122;9.952;2023-03-20T06:34:21;100720.94;;;8.39;100.00
13705;BME280;6924;52.122;9.952;2023-03-20T06:36:48;100715.78;;;8.51;100.00
13705;BME280;6924;52.122;9.952;2023-03-20T06:39:14;100721.94;;;8.53;100.00
13705;BME280;6924;52.122;9.952;2023-03-20T06:41:41;100723.81;;;8.63;100.00
13705;BME280;6924;52.122;9.952;2023-03-20T06:44:09;100728.13;;;8.55;100.00
13705;BME280;6924;52.122;9.952;2023-03-20T06:46:35;100726.91;;;8.66;100.00
13705;BME280;6924;52.122;9.952;2023-03-20T06:49:01;100733.03;;;8.74;100.00
13705;BME280;6924;52.122;9.952;2023-03-20T06:51:28;100732.31;;;8.87;100.00
13705;BME280;6924;52.122;9.952;2023-03-20T06:53:54;100727.69;;;8.96;100.00
13705;BME280;6924;52.122;9.952;2023-03-20T06:56:21;100730.97;;;8.79;100.00
13705;BME280;6924;52.122;9.952;2023-03-20T06:58:47;100741.88;;;8.62;100.00
13705;BME280;6924;52.122;9.952;2023-03-20T07:01:16;100747.00;;;8.60;100.00
13705;BME280;6924;52.122;9.952;2023-03-20T07:03:44;100751.03;;;8.78;100.00
13705;BME280;6924;52.122;9.952;2023-03-20T07:06:11;100743.28;;;8.64;100.00
13705;BME280;6924;52.122;9.952;2023-03-20T07:08:38;100750.03;;;8.63;100.00
13705;BME280;6924;52.122;9.952;2023-03-20T07:11:05;100750.19;;;8.48;100.00
13705;BME280;6924;52.122;9.952;2023-03-20T07:13:32;100740.75;;;8.63;100.00
13705;BME280;6924;52.122;9.952;2023-03-20T07:15:59;100753.50;;;8.55;100.00
13705;BME280;6924;52.122;9.952;2023-03-20T07:18:27;100758.00;;;8.56;100.00
13705;BME280;6924;52.122;9.952;2023-03-20T07:20:58;100758.59;;;8.53;100.00
13705;BME280;6924;52.122;9.952;2023-03-20T07:23:26;100767.56;;;8.60;100.00
13705;BME280;6924;52.122;9.952;2023-03-20T07:25:52;100764.22;;;8.53;100.00
13705;BME280;6924;52.122;9.952;2023-03-20T07:28:18;100764.47;;;8.57;100.00
13705;BME280;6924;52.122;9.952;2023-03-20T07:30:45;100776.22;;;8.69;100.00
13705;BME280;6924;52.122;9.952;2023-03-20T07:33:11;100778.22;;;8.63;100.00
13705;BME280;6924;52.122;9.952;2023-03-20T07:35:39;100780.69;;;8.70;100.00
13705;BME280;6924;52.122;9.952;2023-03-20T07:38:05;100775.81;;;8.81;100.00
13705;BME280;6924;52.122;9.952;2023-03-20T07:40:32;100764.06;;;8.68;100.00
13705;BME280;6924;52.122;9.952;2023-03-20T07:42:58;100777.31;;;8.73;100.00
13705;BME280;6924;52.122;9.952;2023-03-20T07:45:25;100778.97;;;8.74;100.00
13705;BME280;6924;52.122;9.952;2023-03-20T07:47:52;100784.69;;;8.69;100.00
13705;BME280;6924;52.122;9.952;2023-03-20T07:50:18;100775.50;;;8.82;100.00
13705;BME280;6924;52.122;9.952;2023-03-20T07:52:46;100774.00;;;8.90;100.00
13705;BME280;6924;52.122;9.952;2023-03-20T07:55:13;100782.44;;;8.95;100.00
13705;BME280;6924;52.122;9.952;2023-03-20T07:57:40;100781.56;;;8.95;100.00
13705;BME280;6924;52.122;9.952;2023-03-20T08:00:08;100788.50;;;9.07;100.00
13705;BME280;6924;52.122;9.952;2023-03-20T08:02:34;100782.94;;;8.97;100.00
13705;BME280;6924;52.122;9.952;2023-03-20T08:05:01;100786.38;;;8.94;100.00
13705;BME280;6924;52.122;9.952;2023-03-20T08:07:27;100797.94;;;8.93;100.00
13705;BME280;6924;52.122;9.952;2023-03-20T08:09:55;100789.06;;;8.80;100.00
13705;BME280;6924;52.122;9.952;2023-03-20T08:12:22;100794.75;;;8.75;99.26
13705;BME280;6924;52.122;9.952;2023-03-20T08:14:49;100783.97;;;8.82;100.00
13705;BME280;6924;52.122;9.952;2023-03-20T08:17:16;100794.22;;;8.97;100.00
13705;BME280;6924;52.122;9.952;2023-03-20T08:19:43;100790.94;;;8.90;98.99
13705;BME280;6924;52.122;9.952;2023-03-20T08:22:09;100788.56;;;9.02;99.72
13705;BME280;6924;52.122;9.952;2023-03-20T08:24:36;100785.28;;;8.90;96.56
13705;BME280;6924;52.122;9.952;2023-03-20T08:27:06;100791.28;;;8.83;99.77
13705;BME280;6924;52.122;9.952;2023-03-20T08:29:33;100787.00;;;8.91;100.00
13705;BME280;6924;52.122;9.952;2023-03-20T08:31:59;100791.38;;;9.02;100.00
13705;BME280;6924;52.122;9.952;2023-03-20T08:34:26;100796.66;;;9.09;98.61
13705;BME280;6924;52.122;9.952;2023-03-20T08:36:52;100791.03;;;9.09;97.44
13705;BME280;6924;52.122;9.952;2023-03-20T08:39:19;100786.78;;;8.82;97.89
13705;BME280;6924;52.122;9.952;2023-03-20T08:41:46;100792.09;;;8.89;99.50
13705;BME280;6924;52.122;9.952;2023-03-20T08:44:14;100792.28;;;8.98;98.89
13705;BME280;6924;52.122;9.952;2023-03-20T08:46:40;100796.88;;;9.13;99.59
13705;BME280;6924;52.122;9.952;2023-03-20T08:49:08;100798.69;;;9.27;100.00
13705;BME280;6924;52.122;9.952;2023-03-20T08:51:35;100796.66;;;9.09;96.05
13705;BME280;6924;52.122;9.952;2023-03-20T08:54:01;100796.38;;;9.10;97.87
13705;BME280;6924;52.122;9.952;2023-03-20T08:56:28;100792.03;;;8.94;96.46
13705;BME280;6924;52.122;9.952;2023-03-20T08:58:54;100796.53;;;8.95;98.47
13705;BME280;6924;52.122;9.952;2023-03-20T09:01:22;100795.19;;;8.87;96.79
13705;BME280;6924;52.122;9.952;2023-03-20T09:03:48;100801.38;;;8.89;97.34
13705;BME280;6924;52.122;9.952;2023-03-20T09:06:16;100795.13;;;8.93;97.65
13705;BME280;6924;52.122;9.952;2023-03-20T09:08:43;100812.56;;;9.00;99.51
13705;BME280;6924;52.122;9.952;2023-03-20T09:11:09;100807.91;;;8.85;96.01
13705;BME280;6924;52.122;9.952;2023-03-20T09:13:36;100816.94;;;8.87;99.96
13705;BME280;6924;52.122;9.952;2023-03-20T09:16:02;100814.31;;;8.96;99.20
13705;BME280;6924;52.122;9.952;2023-03-20T09:18:30;100819.34;;;8.99;100.00
13705;BME280;6924;52.122;9.952;2023-03-20T09:20:56;100812.31;;;8.96;98.14
13705;BME280;6924;52.122;9.952;2023-03-20T09:23:23;100813.91;;;8.78;97.02
13705;BME280;6924;52.122;9.952;2023-03-20T09:25:49;100809.91;;;8.84;97.92
13705;BME280;6924;52.122;9.952;2023-03-20T09:28:16;100799.22;;;9.05;98.66
13705;BME280;6924;52.122;9.952;2023-03-20T09:30:42;100802.13;;;9.24;100.00
13705;BME280;6924;52.122;9.952;2023-03-20T09:33:10;100801.31;;;9.24;99.11
13705;BME280;6924;52.122;9.952;2023-03-20T09:35:37;100800.25;;;9.39;100.00
13705;BME280;6924;52.122;9.952;2023-03-20T09:38:04;100810.09;;;9.41;97.97
13705;BME280;6924;52.122;9.952;2023-03-20T09:40:50;100809.22;;;9.22;93.40
13705;BME280;6924;52.122;9.952;2023-03-20T09:43:24;100804.06;;;9.29;95.32
13705;BME280;6924;52.122;9.952;2023-03-20T09:45:59;100811.25;;;9.40;98.42
13705;BME280;6924;52.122;9.952;2023-03-20T09:48:32;100808.91;;;9.47;95.41
13705;BME280;6924;52.122;9.952;2023-03-20T09:51:06;100812.88;;;9.46;94.68
13705;BME280;6924;52.122;9.952;2023-03-20T09:53:37;100807.63;;;9.35;93.29
13705;BME280;6924;52.122;9.952;2023-03-20T09:56:09;100812.72;;;9.57;95.96
13705;BME280;6924;52.122;9.952;2023-03-20T09:58:40;100814.59;;;9.66;97.00
13705;BME280;6924;52.122;9.952;2023-03-20T10:01:12;100813.31;;;9.78;96.24
13705;BME280;6924;52.122;9.952;2023-03-20T10:03:42;100819.09;;;9.67;94.29
13705;BME280;6924;52.122;9.952;2023-03-20T10:06:13;100827.44;;;9.78;93.33
13705;BME280;6924;52.122;9.952;2023-03-20T10:08:40;100815.06;;;9.73;90.50
13705;BME280;6924;52.122;9.952;2023-03-20T10:11:19;100810.19;;;9.79;91.57
13705;BME280;6924;52.122;9.952;2023-03-20T10:14:06;100807.56;;;9.83;87.96
13705;BME280;6924;52.122;9.952;2023-03-20T10:16:44;100811.72;;;9.90;88.26
13705;BME280;6924;52.122;9.952;2023-03-20T10:19:21;100825.69;;;10.01;87.39
13705;BME280;6924;52.122;9.952;2023-03-20T10:21:53;100819.13;;;10.24;88.42
13705;BME280;6924;52.122;9.952;2023-03-20T10:24:27;100815.09;;;10.30;84.25
13705;BME280;6924;52.122;9.952;2023-03-20T10:26:58;100825.59;;;10.30;84.70
13705;BME280;6924;52.122;9.952;2023-03-20T10:29:32;100813.34;;;10.34;84.87
13705;BME280;6924;52.122;9.952;2023-03-20T10:32:08;100815.28;;;10.53;84.67
13705;BME280;6924;52.122;9.952;2023-03-20T10:34:47;100825.00;;;10.28;79.16
13705;BME280;6924;52.122;9.952;2023-03-20T10:37:28;100832.91;;;10.31;80.01
13705;BME280;6924;52.122;9.952;2023-03-20T10:40:02;100824.41;;;10.50;83.34
13705;BME280;6924;52.122;9.952;2023-03-20T10:42:42;100827.41;;;10.40;81.54
13705;BME280;6924;52.122;9.952;2023-03-20T10:45:20;100830.06;;;10.12;81.48
13705;BME280;6924;52.122;9.952;2023-03-20T10:47:52;100823.06;;;9.85;78.79
13705;BME280;6924;52.122;9.952;2023-03-20T10:50:22;100824.94;;;9.95;81.38
13705;BME280;6924;52.122;9.952;2023-03-20T10:52:55;100818.38;;;10.00;82.28
13705;BME280;6924;52.122;9.952;2023-03-20T10:55:26;100816.31;;;10.05;83.79
13705;BME280;6924;52.122;9.952;2023-03-20T10:57:57;100811.84;;;10.18;82.73
13705;BME280;6924;52.122;9.952;2023-03-20T11:00:25;100809.50;;;10.25;79.40
13705;BME280;6924;52.122;9.952;2023-03-20T11:02:52;100815.31;;;10.15;76.53
13705;BME280;6924;52.122;9.952;2023-03-20T11:05:27;100813.69;;;10.09;79.17
13705;BME280;6924;52.122;9.952;2023-03-20T11:08:02;100816.28;;;10.24;81.19
13705;BME280;6924;52.122;9.952;2023-03-20T11:10:31;100812.88;;;10.27;80.09
13705;BME280;6924;52.122;9.952;2023-03-20T11:13:12;100812.28;;;10.30;77.88
13705;BME280;6924;52.122;9.952;2023-03-20T11:15:41;100805.78;;;10.30;77.59
13705;BME280;6924;52.122;9.952;2023-03-20T11:18:10;100810.72;;;10.19;75.35
13705;BME280;6924;52.122;9.952;2023-03-20T11:20:44;100793.03;;;10.32;80.33
13705;BME280;6924;52.122;9.952;2023-03-20T11:23:16;100796.19;;;10.45;79.48
13705;BME280;6924;52.122;9.952;2023-03-20T11:25:49;100795.19;;;10.54;79.15
13705;BME280;6924;52.122;9.952;2023-03-20T11:28:18;100786.28;;;10.47;75.77
13705;BME280;6924;52.122;9.952;2023-03-20T11:30:45;100787.78;;;10.59;80.41
13705;BME280;6924;52.122;9.952;2023-03-20T11:33:14;100789.47;;;10.73;81.29
13705;BME280;6924;52.122;9.952;2023-03-20T11:35:44;100794.72;;;10.80;80.77
13705;BME280;6924;52.122;9.952;2023-03-20T11:38:15;100785.78;;;10.59;74.35
13705;BME280;6924;52.122;9.952;2023-03-20T11:40:42;100779.72;;;10.66;79.04
13705;BME280;6924;52.122;9.952;2023-03-20T11:43:11;100770.53;;;10.74;78.59
13705;BME280;6924;52.122;9.952;2023-03-20T11:45:39;100774.78;;;10.71;75.82
13705;BME280;6924;52.122;9.952;2023-03-20T11:48:15;100766.13;;;10.68;77.51
13705;BME280;6924;52.122;9.952;2023-03-20T11:50:46;100762.47;;;10.81;78.50
13705;BME280;6924;52.122;9.952;2023-03-20T11:53:22;100762.28;;;10.91;78.10
13705;BME280;6924;52.122;9.952;2023-03-20T11:56:01;100754.31;;;11.07;76.74
13705;BME280;6924;52.122;9.952;2023-03-20T11:58:29;100752.75;;;10.87;75.57
13705;BME280;6924;52.122;9.952;2023-03-20T12:00:56;100763.72;;;10.75;72.88
13705;BME280;6924;52.122;9.952;2023-03-20T12:03:44;100761.56;;;10.53;74.11
13705;BME280;6924;52.122;9.952;2023-03-20T12:06:17;100753.50;;;10.60;77.00
13705;BME280;6924;52.122;9.952;2023-03-20T12:08:55;100757.53;;;10.40;72.85
13705;BME280;6924;52.122;9.952;2023-03-20T12:11:41;100748.16;;;10.26;72.62
13705;BME280;6924;52.122;9.952;2023-03-20T12:14:16;100748.59;;;10.14;72.70
13705;BME280;6924;52.122;9.952;2023-03-20T12:16:48;100749.19;;;9.97;76.55
13705;BME280;6924;52.122;9.952;2023-03-20T12:19:19;100745.31;;;10.26;78.24
13705;BME280;6924;52.122;9.952;2023-03-20T12:21:54;100747.09;;;10.41;77.53
13705;BME280;6924;52.122;9.952;2023-03-20T12:24:30;100747.13;;;10.54;76.40
13705;BME280;6924;52.122;9.952;2023-03-20T12:27:10;100736.06;;;10.72;77.51
13705;BME280;6924;52.122;9.952;2023-03-20T12:29:42;100732.19;;;10.82;76.36
13705;BME280;6924;52.122;9.952;2023-03-20T12:32:15;100733.00;;;10.82;72.60
13705;BME280;6924;52.122;9.952;2023-03-20T12:34:44;100732.78;;;10.65;70.90
13705;BME280;6924;52.122;9.952;2023-03-20T12:37:13;100732.06;;;10.73;73.58
13705;BME280;6924;52.122;9.952;2023-03-20T12:39:47;100730.41;;;10.86;73.82
13705;BME280;6924;52.122;9.952;2023-03-20T12:42:23;100732.72;;;10.98;74.67
13705;BME280;6924;52.122;9.952;2023-03-20T12:44:55;100735.88;;;10.96;70.14
13705;BME280;6924;52.122;9.952;2023-03-20T12:47:36;100734.19;;;10.95;71.67
13705;BME280;6924;52.122;9.952;2023-03-20T12:50:15;100736.28;;;11.03;71.24
13705;BME280;6924;52.122;9.952;2023-03-20T12:52:50;100737.94;;;10.90;70.71
13705;BME280;6924;52.122;9.952;2023-03-20T12:55:31;100738.88;;;10.86;67.11
13705;BME280;6924;52.122;9.952;2023-03-20T12:58:09;100727.16;;;10.79;66.89
13705;BME280;6924;52.122;9.952;2023-03-20T13:00:42;100730.19;;;10.82;69.73
13705;BME280;6924;52.122;9.952;2023-03-20T13:03:30;100733.34;;;10.81;69.50
13705;BME280;6924;52.122;9.952;2023-03-20T13:06:06;100728.81;;;10.80;68.45
13705;BME280;6924;52.122;9.952;2023-03-20T13:08:51;100718.53;;;10.56;66.99
13705;BME280;6924;52.122;9.952;2023-03-20T13:11:28;100721.56;;;10.73;70.42
13705;BME280;6924;52.122;9.952;2023-03-20T13:14:00;100721.56;;;10.60;66.00
13705;BME280;6924;52.122;9.952;2023-03-20T13:16:37;100718.00;;;10.54;65.40
13705;BME280;6924;52.122;9.952;2023-03-20T13:19:13;100713.50;;;10.67;66.57
13705;BME280;6924;52.122;9.952;2023-03-20T13:21:46;100711.66;;;10.90;70.02